PWSweather.com
Personal Weather Stations
Station Observations
PXYWEWX1
West End, Punxsutawney, PA 15767

West EndPunxsutawney, PA 15767

Lat: 40.9447, Lon: -78.9905

Elevation: 1273

Station Type: Davis Vantage Pro 2 24 Hour FARS

http://www.punxsutawneyweather.com

Latest ConditionsUpdated 8:45:00 PM EST Saturday, Feb 23, 2019
Currently Today's Max Today's Min Today's Average
Temperature 35.5°F1.9°C 37.9°F3.3°C 27.8°F-2.3°C 33.2°F0.7°C
Dew Point 31.4°F-0.3°C 31.5°F-0.3°C 22.7°F-5.2°C 26.3°F-3.2°C
Winds 3.4 mph ESE5.5 kmh ESE 5.6 mph -9.0 kmh - - 2.6 mph 4.2 kmh
Wind Gusts 7.0 mph11.3 kmh 14.0 mph22.5 kmh - -
Humidity 85% 87% 58% 76%
Pressure 30.08 in1018.6 mb 30.46 in1031.5 mb 30.08 in1018.6 mb -
Precipitation - 0.05 in1.3 mm - -
Hour Temp Dew Point Humidity Winds Wind Gusts Pressure Precip Precip Rate Daily Precip Total
08:45 PM 35.5°F1.9°C 31.4°F-0.3°C 85% 3.4 mph ESE5.5 kmh ESE 7.0 mph11.3 kmh 30.08 in1018.6 mb 0.01 in0.3 mm 0.00 in0.0 mm 0.05 in1.3 mm
08:30 PM 35.5°F1.9°C 31.1°F-0.5°C 84% 4.2 mph ESE6.8 kmh ESE 9.0 mph14.5 kmh 30.09 in1019.0 mb 0.01 in0.3 mm 0.00 in0.0 mm 0.05 in1.3 mm
08:15 PM 35.6°F2.0°C 31.5°F-0.3°C 85% 3.1 mph ESE5.0 kmh ESE 8.0 mph12.9 kmh 30.11 in1019.6 mb 0.01 in0.3 mm 0.04 in1.0 mm 0.05 in1.3 mm
08:00 PM 35.6°F2.0°C 31.2°F-0.4°C 84% 3.7 mph ESE6.0 kmh ESE 9.0 mph14.5 kmh 30.10 in1019.3 mb 0.00 in0.0 mm 0.00 in0.0 mm 0.04 in1.0 mm
07:45 PM 35.6°F2.0°C 31.2°F-0.4°C 84% 3.5 mph E5.6 kmh E 8.0 mph12.9 kmh 30.12 in1020.0 mb 0.00 in0.0 mm 0.00 in0.0 mm 0.04 in1.0 mm
07:30 PM 35.7°F2.1°C 31.3°F-0.4°C 84% 3.9 mph ESE6.3 kmh ESE 9.0 mph14.5 kmh 30.12 in1020.0 mb 0.00 in0.0 mm 0.00 in0.0 mm 0.04 in1.0 mm
07:15 PM 35.6°F2.0°C 31.2°F-0.4°C 84% 3.3 mph ESE5.3 kmh ESE 8.0 mph12.9 kmh 30.13 in1020.3 mb 0.00 in0.0 mm 0.00 in0.0 mm 0.04 in1.0 mm
07:00 PM 35.5°F1.9°C 31.4°F-0.3°C 85% 3.7 mph ESE6.0 kmh ESE 8.0 mph12.9 kmh 30.13 in1020.3 mb 0.00 in0.0 mm 0.00 in0.0 mm 0.04 in1.0 mm
06:45 PM 35.4°F1.9°C 31.3°F-0.4°C 85% 3.7 mph E6.0 kmh E 8.0 mph12.9 kmh 30.14 in1020.7 mb 0.00 in0.0 mm 0.00 in0.0 mm 0.04 in1.0 mm
06:30 PM 35.2°F1.8°C 31.1°F-0.5°C 85% 3.2 mph E5.1 kmh E 7.0 mph11.3 kmh 30.14 in1020.7 mb 0.00 in0.0 mm 0.00 in0.0 mm 0.04 in1.0 mm
06:15 PM 35.2°F1.8°C 31.1°F-0.5°C 85% 4.3 mph ESE6.9 kmh ESE 9.0 mph14.5 kmh 30.14 in1020.7 mb 0.00 in0.0 mm 0.00 in0.0 mm 0.04 in1.0 mm
06:00 PM 35.0°F1.7°C 31.2°F-0.4°C 86% 4.0 mph E6.4 kmh E 9.0 mph14.5 kmh 30.14 in1020.7 mb 0.00 in0.0 mm 0.00 in0.0 mm 0.04 in1.0 mm
05:45 PM 34.9°F1.6°C 31.1°F-0.5°C 86% 4.0 mph ESE6.4 kmh ESE 10.0 mph16.1 kmh 30.14 in1020.7 mb 0.01 in0.3 mm 0.00 in0.0 mm 0.04 in1.0 mm
05:30 PM 34.6°F1.4°C 31.1°F-0.5°C 87% 3.8 mph ESE6.1 kmh ESE 8.0 mph12.9 kmh 30.15 in1021.0 mb 0.02 in0.5 mm 0.00 in0.0 mm 0.04 in1.0 mm
05:15 PM 34.5°F1.4°C 31.0°F-0.6°C 87% 3.8 mph E6.1 kmh E 8.0 mph12.9 kmh 30.15 in1021.0 mb 0.02 in0.5 mm 0.00 in0.0 mm 0.04 in1.0 mm
05:00 PM 34.5°F1.4°C 31.0°F-0.6°C 87% 3.1 mph E5.0 kmh E 7.0 mph11.3 kmh 30.16 in1021.3 mb 0.02 in0.5 mm 0.01 in0.3 mm 0.04 in1.0 mm
04:45 PM 34.6°F1.4°C 30.6°F-0.8°C 85% 3.8 mph E6.1 kmh E 6.0 mph9.7 kmh 30.17 in1021.7 mb 0.01 in0.3 mm 0.04 in1.0 mm 0.03 in0.8 mm
04:30 PM 34.9°F1.6°C 30.6°F-0.8°C 84% 4.3 mph ESE6.9 kmh ESE 9.0 mph14.5 kmh 30.18 in1022.0 mb 0.00 in0.0 mm 0.00 in0.0 mm 0.02 in0.5 mm
04:15 PM 34.9°F1.6°C 30.6°F-0.8°C 84% 3.5 mph ESE5.6 kmh ESE 9.0 mph14.5 kmh 30.18 in1022.0 mb 0.00 in0.0 mm 0.00 in0.0 mm 0.02 in0.5 mm
04:00 PM 34.6°F1.4°C 30.6°F-0.8°C 85% 3.4 mph ESE5.5 kmh ESE 9.0 mph14.5 kmh 30.18 in1022.0 mb 0.00 in0.0 mm 0.00 in0.0 mm 0.02 in0.5 mm
03:45 PM 34.6°F1.4°C 30.6°F-0.8°C 85% 4.8 mph ESE7.7 kmh ESE 9.0 mph14.5 kmh 30.19 in1022.4 mb 0.00 in0.0 mm 0.00 in0.0 mm 0.02 in0.5 mm
03:30 PM 34.7°F1.5°C 30.4°F-0.9°C 84% 4.3 mph ESE6.9 kmh ESE 9.0 mph14.5 kmh 30.19 in1022.4 mb 0.00 in0.0 mm 0.00 in0.0 mm 0.02 in0.5 mm
03:15 PM 34.8°F1.6°C 30.5°F-0.8°C 84% 3.3 mph E5.3 kmh E 8.0 mph12.9 kmh 30.21 in1023.0 mb 0.00 in0.0 mm 0.00 in0.0 mm 0.02 in0.5 mm
03:00 PM 34.8°F1.6°C 29.9°F-1.2°C 82% 3.0 mph ESE4.8 kmh ESE 9.0 mph14.5 kmh 30.22 in1023.4 mb 0.00 in0.0 mm 0.00 in0.0 mm 0.02 in0.5 mm
02:45 PM 34.9°F1.6°C 30.0°F-1.1°C 82% 3.7 mph ESE6.0 kmh ESE 10.0 mph16.1 kmh 30.23 in1023.7 mb 0.01 in0.3 mm 0.00 in0.0 mm 0.02 in0.5 mm
02:30 PM 35.0°F1.7°C 29.8°F-1.2°C 81% 4.1 mph ESE6.6 kmh ESE 9.0 mph14.5 kmh 30.24 in1024.0 mb 0.01 in0.3 mm 0.00 in0.0 mm 0.02 in0.5 mm
02:15 PM 34.9°F1.6°C 29.4°F-1.4°C 80% 4.6 mph ESE7.4 kmh ESE 10.0 mph16.1 kmh 30.25 in1024.4 mb 0.02 in0.5 mm 0.00 in0.0 mm 0.02 in0.5 mm
02:00 PM 34.9°F1.6°C 29.7°F-1.3°C 81% 3.1 mph ESE5.0 kmh ESE 6.0 mph9.7 kmh 30.25 in1024.4 mb 0.02 in0.5 mm 0.01 in0.3 mm 0.02 in0.5 mm
01:45 PM 34.7°F1.5°C 29.5°F-1.4°C 81% 4.7 mph ESE7.6 kmh ESE 10.0 mph16.1 kmh 30.26 in1024.7 mb 0.01 in0.3 mm 0.00 in0.0 mm 0.01 in0.3 mm
01:30 PM 35.1°F1.7°C 28.9°F-1.7°C 78% 4.7 mph ESE7.6 kmh ESE 10.0 mph16.1 kmh 30.27 in1025.1 mb 0.01 in0.3 mm 0.04 in1.0 mm 0.01 in0.3 mm
01:15 PM 35.7°F2.1°C 28.2°F-2.1°C 74% 5.5 mph SE8.9 kmh SE 9.0 mph14.5 kmh 30.27 in1025.1 mb 0.00 in0.0 mm 0.00 in0.0 mm 0.00 in0.0 mm
01:00 PM 36.9°F2.7°C 27.0°F-2.8°C 67% 4.2 mph SE6.8 kmh SE 14.0 mph22.5 kmh 30.28 in1025.4 mb 0.00 in0.0 mm 0.00 in0.0 mm 0.00 in0.0 mm
12:45 PM 37.7°F3.2°C 25.8°F-3.4°C 62% 4.0 mph SE6.4 kmh SE 11.0 mph17.7 kmh 30.28 in1025.4 mb 0.00 in0.0 mm 0.00 in0.0 mm 0.00 in0.0 mm
12:30 PM 37.8°F3.2°C 24.7°F-4.1°C 59% 3.9 mph SE6.3 kmh SE 11.0 mph17.7 kmh 30.29 in1025.7 mb 0.00 in0.0 mm 0.00 in0.0 mm 0.00 in0.0 mm
12:15 PM 37.9°F3.3°C 26.0°F-3.3°C 62% 4.4 mph E7.1 kmh E 11.0 mph17.7 kmh 30.30 in1026.1 mb 0.00 in0.0 mm 0.00 in0.0 mm 0.00 in0.0 mm
12:00 PM 37.8°F3.2°C 24.7°F-4.1°C 59% 5.6 mph ESE9.0 kmh ESE 10.0 mph16.1 kmh 30.31 in1026.4 mb 0.00 in0.0 mm 0.00 in0.0 mm 0.00 in0.0 mm
11:45 AM 37.8°F3.2°C 24.7°F-4.1°C 59% 4.7 mph ESE7.6 kmh ESE 9.0 mph14.5 kmh 30.31 in1026.4 mb 0.00 in0.0 mm 0.00 in0.0 mm 0.00 in0.0 mm
11:30 AM 37.7°F3.2°C 24.6°F-4.1°C 59% 4.2 mph ESE6.8 kmh ESE 11.0 mph17.7 kmh 30.32 in1026.8 mb 0.00 in0.0 mm 0.00 in0.0 mm 0.00 in0.0 mm
11:15 AM 37.8°F3.2°C 24.3°F-4.3°C 58% 5.0 mph ESE8.0 kmh ESE 11.0 mph17.7 kmh 30.33 in1027.1 mb 0.00 in0.0 mm 0.00 in0.0 mm 0.00 in0.0 mm
11:00 AM 37.9°F3.3°C 24.8°F-4.0°C 59% 4.9 mph ESE7.9 kmh ESE 9.0 mph14.5 kmh 30.33 in1027.1 mb 0.00 in0.0 mm 0.00 in0.0 mm 0.00 in0.0 mm
10:45 AM 37.7°F3.2°C 25.1°F-3.8°C 60% 3.1 mph SE5.0 kmh SE 9.0 mph14.5 kmh 30.34 in1027.4 mb 0.00 in0.0 mm 0.00 in0.0 mm 0.00 in0.0 mm
10:30 AM 37.1°F2.8°C 24.9°F-3.9°C 61% 4.1 mph ESE6.6 kmh ESE 8.0 mph12.9 kmh 30.34 in1027.4 mb 0.00 in0.0 mm 0.00 in0.0 mm 0.00 in0.0 mm
10:15 AM 36.3°F2.4°C 24.5°F-4.2°C 62% 3.9 mph ESE6.3 kmh ESE 14.0 mph22.5 kmh 30.34 in1027.4 mb 0.00 in0.0 mm 0.00 in0.0 mm 0.00 in0.0 mm
10:00 AM 36.0°F2.2°C 24.2°F-4.3°C 62% 2.7 mph E4.3 kmh E 8.0 mph12.9 kmh 30.35 in1027.8 mb 0.00 in0.0 mm 0.00 in0.0 mm 0.00 in0.0 mm
09:45 AM 35.5°F1.9°C 24.1°F-4.4°C 63% 4.2 mph ESE6.8 kmh ESE 11.0 mph17.7 kmh 30.36 in1028.1 mb 0.00 in0.0 mm 0.00 in0.0 mm 0.00 in0.0 mm
09:30 AM 35.1°F1.7°C 23.8°F-4.6°C 63% 2.4 mph E3.9 kmh E 7.0 mph11.3 kmh 30.36 in1028.1 mb 0.00 in0.0 mm 0.00 in0.0 mm 0.00 in0.0 mm
09:15 AM 34.3°F1.3°C 23.7°F-4.6°C 65% 2.8 mph E4.5 kmh E 6.0 mph9.7 kmh 30.35 in1027.8 mb 0.00 in0.0 mm 0.00 in0.0 mm 0.00 in0.0 mm
09:00 AM 33.9°F1.1°C 23.7°F-4.6°C 66% 2.9 mph E4.7 kmh E 7.0 mph11.3 kmh 30.36 in1028.1 mb 0.00 in0.0 mm 0.00 in0.0 mm 0.00 in0.0 mm
08:45 AM 33.7°F0.9°C 23.5°F-4.7°C 66% 2.0 mph E3.2 kmh E 5.0 mph8.0 kmh 30.37 in1028.4 mb 0.00 in0.0 mm 0.00 in0.0 mm 0.00 in0.0 mm
08:30 AM 33.2°F0.7°C 23.4°F-4.8°C 67% 1.9 mph E3.1 kmh E 10.0 mph16.1 kmh 30.37 in1028.4 mb 0.00 in0.0 mm 0.00 in0.0 mm 0.00 in0.0 mm
08:15 AM 32.6°F0.3°C 23.2°F-4.9°C 68% 1.3 mph E2.1 kmh E 6.0 mph9.7 kmh 30.37 in1028.4 mb 0.00 in0.0 mm 0.00 in0.0 mm 0.00 in0.0 mm
08:00 AM 32.4°F0.2°C 23.0°F-5.0°C 68% 2.0 mph E3.2 kmh E 5.0 mph8.0 kmh 30.37 in1028.4 mb 0.00 in0.0 mm 0.00 in0.0 mm 0.00 in0.0 mm
07:45 AM 32.2°F0.1°C 22.8°F-5.1°C 68% 2.3 mph E3.7 kmh E 5.0 mph8.0 kmh 30.38 in1028.8 mb 0.00 in0.0 mm 0.00 in0.0 mm 0.00 in0.0 mm
07:30 AM 31.9°F-0.1°C 22.9°F-5.1°C 69% 1.8 mph E2.9 kmh E 4.0 mph6.4 kmh 30.38 in1028.8 mb 0.00 in0.0 mm 0.00 in0.0 mm 0.00 in0.0 mm
07:15 AM 31.8°F-0.1°C 22.8°F-5.1°C 69% 2.1 mph E3.4 kmh E 7.0 mph11.3 kmh 30.38 in1028.8 mb 0.00 in0.0 mm 0.00 in0.0 mm 0.00 in0.0 mm
07:00 AM 31.5°F-0.3°C 22.8°F-5.1°C 70% 1.9 mph ENE3.1 kmh ENE 6.0 mph9.7 kmh 30.38 in1028.8 mb 0.00 in0.0 mm 0.00 in0.0 mm 0.00 in0.0 mm
06:45 AM 31.4°F-0.3°C 22.7°F-5.2°C 70% 2.3 mph ENE3.7 kmh ENE 5.0 mph8.0 kmh 30.39 in1029.1 mb 0.00 in0.0 mm 0.00 in0.0 mm 0.00 in0.0 mm
06:30 AM 31.1°F-0.5°C 22.8°F-5.1°C 71% 1.2 mph NE1.9 kmh NE 5.0 mph8.0 kmh 30.39 in1029.1 mb 0.00 in0.0 mm 0.00 in0.0 mm 0.00 in0.0 mm
06:15 AM 31.1°F-0.5°C 22.8°F-5.1°C 71% 1.2 mph ENE1.9 kmh ENE 5.0 mph8.0 kmh 30.39 in1029.1 mb 0.00 in0.0 mm 0.00 in0.0 mm 0.00 in0.0 mm
06:00 AM 31.0°F-0.6°C 22.7°F-5.2°C 71% 1.1 mph ENE1.8 kmh ENE 5.0 mph8.0 kmh 30.39 in1029.1 mb 0.00 in0.0 mm 0.00 in0.0 mm 0.00 in0.0 mm
05:45 AM 31.2°F-0.4°C 22.9°F-5.1°C 71% 2.0 mph NE3.2 kmh NE 5.0 mph8.0 kmh 30.39 in1029.1 mb 0.00 in0.0 mm 0.00 in0.0 mm 0.00 in0.0 mm
05:30 AM 31.2°F-0.4°C 22.9°F-5.1°C 71% 1.5 mph ENE2.4 kmh ENE 5.0 mph8.0 kmh 30.39 in1029.1 mb 0.00 in0.0 mm 0.00 in0.0 mm 0.00 in0.0 mm
05:15 AM 31.1°F-0.5°C 22.8°F-5.1°C 71% 1.9 mph NE3.1 kmh NE 6.0 mph9.7 kmh 30.40 in1029.5 mb 0.00 in0.0 mm 0.00 in0.0 mm 0.00 in0.0 mm
05:00 AM 30.7°F-0.7°C 23.1°F-4.9°C 73% 1.0 mph ENE1.6 kmh ENE 4.0 mph6.4 kmh 30.41 in1029.8 mb 0.00 in0.0 mm 0.00 in0.0 mm 0.00 in0.0 mm
04:45 AM 29.8°F-1.2°C 23.2°F-4.9°C 76% 0.6 mph E1.0 kmh E 6.0 mph9.7 kmh 30.41 in1029.8 mb 0.00 in0.0 mm 0.00 in0.0 mm 0.00 in0.0 mm
04:30 AM 29.0°F-1.7°C 23.3°F-4.8°C 79% Calm Calm 2.0 mph3.2 kmh 30.42 in1030.1 mb 0.00 in0.0 mm 0.00 in0.0 mm 0.00 in0.0 mm
04:15 AM 29.0°F-1.7°C 23.0°F-5.0°C 78% Calm Calm -- 30.42 in1030.1 mb 0.00 in0.0 mm 0.00 in0.0 mm 0.00 in0.0 mm
04:00 AM 28.7°F-1.8°C 23.3°F-4.8°C 80% Calm Calm -- 30.42 in1030.1 mb 0.00 in0.0 mm 0.00 in0.0 mm 0.00 in0.0 mm
03:45 AM 28.8°F-1.8°C 23.4°F-4.8°C 80% Calm Calm 2.0 mph3.2 kmh 30.41 in1029.8 mb 0.00 in0.0 mm 0.00 in0.0 mm 0.00 in0.0 mm
03:30 AM 29.3°F-1.5°C 23.6°F-4.7°C 79% Calm Calm 1.0 mph1.6 kmh 30.41 in1029.8 mb 0.00 in0.0 mm 0.00 in0.0 mm 0.00 in0.0 mm
03:15 AM 28.9°F-1.7°C 23.8°F-4.6°C 81% Calm Calm 2.0 mph3.2 kmh 30.42 in1030.1 mb 0.00 in0.0 mm 0.00 in0.0 mm 0.00 in0.0 mm
03:00 AM 28.8°F-1.8°C 23.7°F-4.6°C 81% Calm Calm 1.0 mph1.6 kmh 30.42 in1030.1 mb 0.00 in0.0 mm 0.00 in0.0 mm 0.00 in0.0 mm
02:45 AM 28.3°F-2.1°C 23.5°F-4.7°C 82% Calm Calm 2.0 mph3.2 kmh 30.42 in1030.1 mb 0.00 in0.0 mm 0.00 in0.0 mm 0.00 in0.0 mm
02:30 AM 28.1°F-2.2°C 23.6°F-4.7°C 83% Calm Calm 2.0 mph3.2 kmh 30.42 in1030.1 mb 0.00 in0.0 mm 0.00 in0.0 mm 0.00 in0.0 mm
02:15 AM 27.9°F-2.3°C 24.0°F-4.4°C 85% Calm Calm 1.0 mph1.6 kmh 30.43 in1030.5 mb 0.00 in0.0 mm 0.00 in0.0 mm 0.00 in0.0 mm
02:00 AM 27.8°F-2.3°C 23.9°F-4.5°C 85% Calm Calm -- 30.44 in1030.8 mb 0.00 in0.0 mm 0.00 in0.0 mm 0.00 in0.0 mm
01:45 AM 28.0°F-2.2°C 23.8°F-4.6°C 84% Calm Calm -- 30.44 in1030.8 mb 0.00 in0.0 mm 0.00 in0.0 mm 0.00 in0.0 mm
01:30 AM 28.1°F-2.2°C 23.9°F-4.5°C 84% Calm Calm -- 30.44 in1030.8 mb 0.00 in0.0 mm 0.00 in0.0 mm 0.00 in0.0 mm
01:15 AM 27.8°F-2.3°C 23.6°F-4.7°C 84% Calm Calm -- 30.46 in1031.5 mb 0.00 in0.0 mm 0.00 in0.0 mm 0.00 in0.0 mm
01:00 AM 28.1°F-2.2°C 23.9°F-4.5°C 84% Calm Calm 1.0 mph1.6 kmh 30.46 in1031.5 mb 0.00 in0.0 mm 0.00 in0.0 mm 0.00 in0.0 mm
12:45 AM 28.3°F-2.1°C 24.1°F-4.4°C 84% Calm Calm -- 30.46 in1031.5 mb 0.00 in0.0 mm 0.00 in0.0 mm 0.00 in0.0 mm
12:30 AM 28.0°F-2.2°C 23.8°F-4.6°C 84% Calm Calm -- 30.46 in1031.5 mb 0.00 in0.0 mm 0.00 in0.0 mm 0.00 in0.0 mm
12:15 AM 28.3°F-2.1°C 23.8°F-4.6°C 83% Calm Calm -- 30.46 in1031.5 mb 0.00 in0.0 mm 0.00 in0.0 mm 0.00 in0.0 mm
12:00 AM 28.9°F-1.7°C 24.4°F-4.2°C 83% Calm Calm 1.0 mph1.6 kmh 30.45 in1031.2 mb 0.00 in0.0 mm 0.00 in0.0 mm 0.00 in0.0 mm